Map

Track Data

SID SEASON NUMBER BASIN SUBBASIN NAME ISO_TIME NATURE LAT LON WMO_WIND WMO_PRES WMO_AGENCY TRACK_TYPE DIST2LAND LANDFALL IFLAG USA_AGENCY USA_ATCF_ID USA_LAT USA_LON USA_RECORD USA_STATUS USA_WIND USA_PRES USA_SSHS USA_R34_NE USA_R34_SE USA_R34_SW USA_R34_NW USA_R50_NE USA_R50_SE USA_R50_SW USA_R50_NW USA_R64_NE USA_R64_SE USA_R64_SW USA_R64_NW USA_POCI USA_ROCI USA_RMW USA_EYE TOKYO_LAT TOKYO_LON TOKYO_GRADE TOKYO_WIND TOKYO_PRES TOKYO_R50_DIR TOKYO_R50_LONG TOKYO_R50_SHORT TOKYO_R30_DIR TOKYO_R30_LONG TOKYO_R30_SHORT TOKYO_LAND CMA_LAT CMA_LON CMA_CAT CMA_WIND CMA_PRES HKO_LAT HKO_LON HKO_CAT HKO_WIND HKO_PRES NEWDELHI_LAT NEWDELHI_LON NEWDELHI_GRADE NEWDELHI_WIND NEWDELHI_PRES NEWDELHI_CI NEWDELHI_DP NEWDELHI_POCI REUNION_LAT REUNION_LON REUNION_TYPE REUNION_WIND REUNION_PRES REUNION_TNUM REUNION_CI REUNION_RMW REUNION_R34_NE REUNION_R34_SE REUNION_R34_SW REUNION_R34_NW REUNION_R50_NE REUNION_R50_SE REUNION_R50_SW REUNION_R50_NW REUNION_R64_NE REUNION_R64_SE REUNION_R64_SW REUNION_R64_NW BOM_LAT BOM_LON BOM_TYPE BOM_WIND BOM_PRES BOM_TNUM BOM_CI BOM_RMW BOM_R34_NE BOM_R34_SE BOM_R34_SW BOM_R34_NW BOM_R50_NE BOM_R50_SE BOM_R50_SW BOM_R50_NW BOM_R64_NE BOM_R64_SE BOM_R64_SW BOM_R64_NW BOM_ROCI BOM_POCI BOM_EYE BOM_POS_METHOD BOM_PRES_METHOD NADI_LAT NADI_LON NADI_CAT NADI_WIND NADI_PRES WELLINGTON_LAT WELLINGTON_LON WELLINGTON_WIND WELLINGTON_PRES DS824_LAT DS824_LON DS824_STAGE DS824_WIND DS824_PRES TD9636_LAT TD9636_LON TD9636_STAGE TD9636_WIND TD9636_PRES TD9635_LAT TD9635_LON TD9635_WIND TD9635_PRES TD9635_ROCI NEUMANN_LAT NEUMANN_LON NEUMANN_CLASS NEUMANN_WIND NEUMANN_PRES MLC_LAT MLC_LON MLC_CLASS MLC_WIND MLC_PRES USA_GUST BOM_GUST BOM_GUST_PER REUNION_GUST REUNION_GUST_PER USA_SEAHGT USA_SEARAD_NE USA_SEARAD_SE USA_SEARAD_SW USA_SEARAD_NW STORM_SPEED STORM_DIR
1907290N26293 1907 55 NA NA NOT_NAMED 1907-10-17 06:00:00 TS 26.3000 -67.4000 45 hurdat_atl main 794 794 O_____________ hurdat_atl AL041907 26.3000 -67.4000 TS 45 0 13 87
1907290N26293 1907 55 NA NA NOT_NAMED 1907-10-17 09:00:00 TS 26.3282 -66.7000 main 821 821 P_____________ AL041907 26.3282 -66.7000 TS 45 0 13 85
1907290N26293 1907 55 NA NA NOT_NAMED 1907-10-17 12:00:00 TS 26.4000 -66.0000 45 hurdat_atl main 862 862 O_____________ hurdat_atl AL041907 26.4000 -66.0000 TS 45 0 13 80
1907290N26293 1907 55 NA NA NOT_NAMED 1907-10-17 15:00:00 TS 26.5547 -65.2997 main 912 912 P_____________ AL041907 26.5547 -65.2997 TS 45 0 13 72
1907290N26293 1907 55 NA NA NOT_NAMED 1907-10-17 18:00:00 TS 26.8000 -64.6000 45 hurdat_atl main 944 944 O_____________ hurdat_atl AL041907 26.8000 -64.6000 TS 45 0 14 66
1907290N26293 1907 55 NA NA NOT_NAMED 1907-10-17 21:00:00 TS 27.1197 -63.8998 main 987 987 P_____________ AL041907 27.1197 -63.8998 TS 45 0 14 61
1907290N26293 1907 55 NA NA NOT_NAMED 1907-10-18 00:00:00 TS 27.5000 -63.2000 45 hurdat_atl main 1046 1046 O_____________ hurdat_atl AL041907 27.5000 -63.2000 TS 45 0 15 58
1907290N26293 1907 55 NA NA NOT_NAMED 1907-10-18 03:00:00 TS 27.8998 -62.4924 main 1107 1107 P_____________ AL041907 27.8998 -62.4924 TS 45 0 15 57
1907290N26293 1907 55 NA NA NOT_NAMED 1907-10-18 06:00:00 TS 28.3000 -61.8000 45 hurdat_atl main 1172 1172 O_____________ hurdat_atl AL041907 28.3000 -61.8000 TS 45 0 14 60
1907290N26293 1907 55 NA NA NOT_NAMED 1907-10-18 09:00:00 TS 28.6048 -61.1261 main 1228 1228 P_____________ AL041907 28.6048 -61.1261 TS 45 0 13 58
1907290N26293 1907 55 NA NA NOT_NAMED 1907-10-18 12:00:00 TS 29.0000 -60.5000 45 hurdat_atl main 1292 1292 O_____________ hurdat_atl AL041907 29.0000 -60.5000 TS 45 0 15 45
1907290N26293 1907 55 NA NA NOT_NAMED 1907-10-18 15:00:00 TS 29.6545 -59.9423 main 1388 1388 P_____________ AL041907 29.6545 -59.9423 TS 45 0 17 34
1907290N26293 1907 55 NA NA NOT_NAMED 1907-10-18 18:00:00 TS 30.4000 -59.4000 45 hurdat_atl main 1479 1479 O_____________ hurdat_atl AL041907 30.4000 -59.4000 TS 45 0 17 35
1907290N26293 1907 55 NA NA NOT_NAMED 1907-10-18 21:00:00 TS 31.0726 -58.7849 main 1494 1453 P_____________ AL041907 31.0726 -58.7849 TS 45 0 17 38
1907290N26293 1907 55 NA NA NOT_NAMED 1907-10-19 00:00:00 TS 31.7000 -58.2000 45 hurdat_atl main 1453 1417 O_____________ hurdat_atl AL041907 31.7000 -58.2000 TS 45 0 15 36
1907290N26293 1907 55 NA NA NOT_NAMED 1907-10-19 03:00:00 TS 32.2567 -57.7556 main 1407 1379 P_____________ AL041907 32.2567 -57.7556 TS 45 0 13 35
1907290N26293 1907 55 NA NA NOT_NAMED 1907-10-19 06:00:00 TS 32.8000 -57.3000 45 hurdat_atl main 1379 1353 O_____________ hurdat_atl AL041907 32.8000 -57.3000 TS 45 0 14 38
1907290N26293 1907 55 NA NA NOT_NAMED 1907-10-19 09:00:00 TS 33.3616 -56.7302 main 1348 1319 P_____________ AL041907 33.3616 -56.7302 TS 45 0 16 42
1907290N26293 1907 55 NA NA NOT_NAMED 1907-10-19 12:00:00 TS 34.0000 -56.0000 45 hurdat_atl main 1319 1267 O_____________ hurdat_atl AL041907 34.0000 -56.0000 TS 45 0 18 42
1907290N26293 1907 55 NA NA NOT_NAMED 1907-10-19 15:00:00 TS 34.7325 -55.2606 main 1267 1225 P_____________ AL041907 34.7325 -55.2606 TS 42 0 23 46
1907290N26293 1907 55 NA NA NOT_NAMED 1907-10-19 18:00:00 ET 35.6000 -54.0000 40 hurdat_atl main 1223 1127 O_____________ hurdat_atl AL041907 35.6000 -54.0000 EX 40 -4 33 56
1907290N26293 1907 55 NA NA NOT_NAMED 1907-10-19 21:00:00 ET 36.5887 -51.8433 main 1118 1059 P_____________ AL041907 36.5887 -51.8433 EX 40 -4 44 63
1907290N26293 1907 55 NA NA NOT_NAMED 1907-10-20 00:00:00 ET 37.6000 -49.1000 40 hurdat_atl main 1055 O_____________ hurdat_atl AL041907 37.6000 -49.1000 EX 40 -4 48 65

About IBTrACS Database

This database is a web-friendly format of International Best Track Archive for Climate Stewardship (IBTrACS), a global best track data archive curated by NOAA dating back to 1842.

Updated: 2021-11-26